Terminal Aerodrome Forecast
Issued by NWS

Home | Current Version | Previous Version | Text Only | Print | Product List | Glossary On
Versions: 1 2 3 4 5 6 7 8 9 10 11 12 13 14 15 16 17 18 19 20 21 22 23 24
000
FTUS43 KDLH 240300 AAB
TAFHIB
TAF AMD
KHIB 240343Z 2404/2424 14010KT 5SM -RASN BR OVC016
      TEMPO 2404/2408 2SM -RASN BR OVC025
     FM240800 12008KT 5SM -RA BR OVC013
     FM241500 11010KT 4SM -RA BR OVC007
     FM242200 10007KT 2SM -SNRA BR OVC007=

USA.gov is the U.S. government's official web portal to all federal, state and local government web resources and services.